Time;durP1;ratioP1;P1;durP2;ratioP2;P2;SDS_P1;SDS_P2;PMS_P1;PMS_P2;Temp;Humidity;BMP_temperature;BMP_pressure;BME280_temperature;BME280_humidity;BME280_pressure;Samples;Min_cycle;Max_cycle;Signal;HPM_P1;HPM_P2
2022/04/13 00:00:27;;;;;;;3.10;1.93;;;9.90;99.90;;;;;;5054973;28;20205;-76
2022/04/13 00:03:39;;;;;;;2.10;1.90;;;9.90;99.90;;;;;;5037814;28;20220;-76
2022/04/13 00:06:04;;;;;;;2.00;1.80;;;9.90;99.90;;;;;;5054823;28;20200;-76
2022/04/13 00:08:31;;;;;;;3.63;1.67;;;9.90;99.90;;;;;;5055035;28;20184;-76
2022/04/13 00:10:57;;;;;;;2.67;2.00;;;9.90;99.90;;;;;;5072091;28;20168;-76
2022/04/13 00:13:22;;;;;;;3.20;1.90;;;9.80;99.90;;;;;;5034772;28;20206;-76
2022/04/13 00:15:48;;;;;;;2.10;1.90;;;9.80;99.90;;;;;;5035024;28;20220;-76
2022/04/13 00:18:13;;;;;;;2.73;2.10;;;9.70;99.90;;;;;;5002259;28;20276;-76
2022/04/13 00:20:39;;;;;;;3.00;2.00;;;9.70;99.90;;;;;;5034824;28;20182;-76
2022/04/13 00:23:06;;;;;;;2.50;2.27;;;9.60;99.90;;;;;;5001904;28;20300;-76
2022/04/13 00:25:33;;;;;;;3.13;2.10;;;9.50;99.90;;;;;;5018544;28;20291;-76
2022/04/13 00:27:59;;;;;;;2.73;2.33;;;9.50;99.90;;;;;;5034644;28;20661;-76
2022/04/13 00:30:25;;;;;;;3.50;2.50;;;9.50;99.90;;;;;;5018095;28;20684;-76
2022/04/13 00:32:50;;;;;;;2.60;2.20;;;9.50;99.90;;;;;;5018203;28;20198;-77
2022/04/13 00:35:17;;;;;;;2.93;2.30;;;9.40;99.90;;;;;;5034524;28;20188;-77
2022/04/13 00:37:42;;;;;;;3.80;2.00;;;9.40;99.90;;;;;;5051342;28;20177;-76
2022/04/13 00:40:09;;;;;;;2.30;2.00;;;9.40;99.90;;;;;;5018332;28;20669;-76
2022/04/13 00:42:35;;;;;;;2.97;2.17;;;9.30;99.90;;;;;;5017855;28;20181;-76
2022/04/13 00:45:00;;;;;;;2.83;2.50;;;9.30;99.90;;;;;;5017814;28;20215;-76
2022/04/13 00:47:26;;;;;;;3.40;2.57;;;9.40;99.90;;;;;;5002186;28;20173;-76
2022/04/13 00:49:54;;;;;;;2.90;2.53;;;9.40;99.90;;;;;;5034685;28;20173;-76
2022/04/13 00:52:21;;;;;;;2.70;2.40;;;9.40;99.90;;;;;;5034500;28;20177;-76
2022/04/13 00:54:48;;;;;;;2.90;2.70;;;9.30;99.90;;;;;;5018235;28;20250;-77
2022/04/13 00:57:17;;;;;;;4.00;2.50;;;9.40;99.90;;;;;;5017888;28;20173;-76
2022/04/13 00:59:45;;;;;;;3.37;2.70;;;9.40;99.90;;;;;;5018196;28;20533;-76
2022/04/13 01:02:31;;;;;;;4.63;2.80;;;9.30;99.90;;;;;;5033982;28;20201;-76
2022/04/13 01:05:03;;;;;;;3.10;2.80;;;9.30;99.90;;;;;;5034472;28;20176;-76
2022/04/13 01:07:30;;;;;;;2.80;2.40;;;9.20;99.90;;;;;;5034905;28;20179;-76
2022/04/13 01:09:57;;;;;;;3.00;2.70;;;9.30;99.90;;;;;;5017811;28;20239;-76
2022/04/13 01:12:23;;;;;;;3.83;2.57;;;9.30;99.90;;;;;;5034169;28;20217;-76
2022/04/13 01:14:48;;;;;;;2.63;2.40;;;9.30;99.90;;;;;;5017879;28;20196;-76
2022/04/13 01:17:14;;;;;;;3.20;2.43;;;9.30;99.90;;;;;;5017825;28;20599;-77
2022/04/13 01:19:40;;;;;;;3.70;2.60;;;9.30;99.90;;;;;;5018007;28;20180;-76
2022/04/13 01:22:20;;;;;;;3.33;2.83;;;9.30;99.90;;;;;;5020259;28;20543;-76
2022/04/13 01:24:46;;;;;;;3.80;3.00;;;9.30;99.90;;;;;;5037939;28;20206;-76
2022/04/13 01:27:14;;;;;;;4.47;3.33;;;9.20;99.90;;;;;;5021462;28;20189;-77
2022/04/13 01:29:41;;;;;;;3.40;3.10;;;9.20;99.90;;;;;;5036042;28;20188;-76
2022/04/13 01:32:07;;;;;;;4.23;2.87;;;9.20;99.90;;;;;;5041130;28;20183;-76
2022/04/13 01:34:33;;;;;;;3.97;2.90;;;9.20;99.90;;;;;;5041032;28;20694;-76
2022/04/13 01:36:58;;;;;;;3.93;2.93;;;9.10;99.90;;;;;;5024505;28;20177;-77
2022/04/13 01:39:24;;;;;;;3.47;3.00;;;9.10;99.90;;;;;;5057497;28;20181;-76
2022/04/13 01:41:50;;;;;;;4.03;3.07;;;9.20;99.90;;;;;;5024484;28;20215;-77
2022/04/13 01:44:15;;;;;;;3.63;3.10;;;9.10;99.90;;;;;;5057450;28;20588;-76
2022/04/13 01:46:41;;;;;;;3.70;3.10;;;8.90;99.90;;;;;;5024500;28;20219;-76
2022/04/13 01:49:07;;;;;;;4.23;3.00;;;8.80;99.90;;;;;;5040788;28;20235;-76
2022/04/13 01:51:33;;;;;;;3.73;3.10;;;8.80;99.90;;;;;;5041025;28;20185;-77
2022/04/13 01:53:58;;;;;;;4.23;3.40;;;9.00;99.90;;;;;;5040511;28;20590;-76
2022/04/13 01:56:24;;;;;;;4.33;3.30;;;9.00;99.90;;;;;;5057314;28;20184;-76
2022/04/13 01:58:50;;;;;;;3.70;3.27;;;9.00;99.90;;;;;;5040619;28;20185;-77
2022/04/13 02:01:31;;;;;;;3.77;2.93;;;9.00;99.90;;;;;;5057051;28;20200;-77
2022/04/13 02:03:57;;;;;;;3.23;2.93;;;9.10;99.90;;;;;;5074634;28;20320;-76
2022/04/13 02:06:22;;;;;;;3.47;3.00;;;9.20;99.90;;;;;;5057315;28;20290;-77
2022/04/13 02:08:48;;;;;;;3.27;2.97;;;9.20;99.90;;;;;;5023997;28;20563;-76
2022/04/13 02:11:14;;;;;;;5.77;3.30;;;9.20;99.90;;;;;;5024238;28;20183;-76
2022/04/13 02:13:40;;;;;;;4.07;3.00;;;9.10;99.90;;;;;;5040004;28;20627;-76
2022/04/13 02:19:27;;;;;;;3.10;2.77;;;9.10;99.90;;;;;;5074696;28;20570;-76
2022/04/13 02:21:53;;;;;;;3.37;2.60;;;9.00;99.90;;;;;;5023802;28;20186;-76
2022/04/13 02:24:18;;;;;;;3.30;2.30;;;8.90;99.90;;;;;;5023631;28;20204;-76
2022/04/13 02:27:03;;;;;;;3.50;2.43;;;8.80;99.90;;;;;;5036533;28;20236;-76
2022/04/13 02:29:28;;;;;;;3.63;2.30;;;8.80;99.90;;;;;;5034385;28;20745;-76
2022/04/13 02:31:54;;;;;;;2.10;1.90;;;8.60;99.90;;;;;;5036549;28;20177;-76
2022/04/13 02:34:20;;;;;;;2.47;1.80;;;8.60;99.90;;;;;;5067217;28;20202;-76
2022/04/13 02:36:45;;;;;;;3.10;2.30;;;8.60;99.90;;;;;;5023395;28;20180;-76
2022/04/13 02:39:11;;;;;;;3.50;2.30;;;8.70;99.90;;;;;;5040067;28;20188;-76
2022/04/13 02:41:37;;;;;;;2.60;2.40;;;8.70;99.90;;;;;;5023682;28;20179;-76
2022/04/13 02:44:03;;;;;;;3.07;2.60;;;8.70;99.90;;;;;;5023308;28;20339;-77
2022/04/13 02:46:29;;;;;;;4.53;3.13;;;8.70;99.90;;;;;;5023035;28;20286;-77
2022/04/13 02:48:54;;;;;;;4.77;3.10;;;8.60;99.90;;;;;;5039678;28;20169;-76
2022/04/13 02:51:20;;;;;;;3.27;2.80;;;8.50;99.90;;;;;;5039545;28;20553;-76
2022/04/13 02:53:45;;;;;;;3.50;2.53;;;8.50;99.90;;;;;;5022894;28;20264;-76
2022/04/13 02:56:11;;;;;;;3.70;2.70;;;8.40;99.90;;;;;;5023372;28;20186;-77
2022/04/13 02:58:37;;;;;;;3.00;2.70;;;8.50;99.90;;;;;;5039619;28;20178;-76
2022/04/13 03:01:04;;;;;;;5.30;2.80;;;8.40;99.90;;;;;;5023334;28;20180;-76
2022/04/13 03:03:30;;;;;;;3.67;2.87;;;8.40;99.90;;;;;;5055708;28;20286;-76
2022/04/13 03:05:56;;;;;;;2.87;2.60;;;8.40;99.90;;;;;;5039646;28;20214;-76
2022/04/13 03:08:21;;;;;;;3.20;2.90;;;8.40;99.90;;;;;;5022725;28;20171;-76
2022/04/13 03:10:47;;;;;;;3.53;2.70;;;8.40;99.90;;;;;;5055775;28;20179;-76
2022/04/13 03:13:13;;;;;;;4.83;3.10;;;8.30;99.90;;;;;;5055778;28;20294;-77
2022/04/13 03:15:39;;;;;;;3.90;2.97;;;8.20;99.90;;;;;;5022878;28;20249;-76
2022/04/13 03:18:07;;;;;;;4.93;2.90;;;8.30;99.90;;;;;;5039517;28;20190;-76
2022/04/13 03:20:34;;;;;;;4.97;2.77;;;8.10;99.90;;;;;;5055601;28;20187;-76
2022/04/13 03:23:03;;;;;;;4.50;2.90;;;8.20;99.90;;;;;;5038985;28;20197;-76
2022/04/13 03:25:29;;;;;;;5.13;2.77;;;8.30;99.90;;;;;;5055773;28;20199;-76
2022/04/13 03:27:55;;;;;;;4.40;3.30;;;8.20;99.90;;;;;;5073273;28;20201;-76
2022/04/13 03:30:22;;;;;;;3.93;3.10;;;8.30;99.90;;;;;;5055395;28;20177;-76
2022/04/13 03:32:50;;;;;;;3.63;2.80;;;8.20;99.90;;;;;;5055152;28;20199;-76
2022/04/13 03:35:15;;;;;;;4.67;3.20;;;8.20;99.90;;;;;;5039278;28;20231;-76
2022/04/13 03:37:41;;;;;;;3.23;2.80;;;8.20;99.90;;;;;;5055237;28;20255;-76
2022/04/13 03:40:09;;;;;;;3.37;2.77;;;8.30;99.90;;;;;;5038766;28;20546;-76
2022/04/13 03:42:36;;;;;;;3.47;2.50;;;8.30;99.90;;;;;;5055373;28;20174;-76
2022/04/13 03:45:06;;;;;;;2.90;2.53;;;8.40;99.90;;;;;;5037963;28;20640;-76
2022/04/13 03:47:32;;;;;;;4.23;2.90;;;8.30;99.90;;;;;;5055042;28;20528;-76
2022/04/13 03:49:58;;;;;;;3.70;2.90;;;8.20;99.90;;;;;;5054952;28;20182;-76
2022/04/13 03:52:24;;;;;;;3.37;3.00;;;8.10;99.90;;;;;;5054833;28;20191;-76
2022/04/13 03:54:50;;;;;;;2.90;2.60;;;8.00;99.90;;;;;;5072813;28;20199;-77
2022/04/13 03:57:15;;;;;;;5.37;3.03;;;8.00;99.90;;;;;;5022161;28;20173;-76
2022/04/13 03:59:41;;;;;;;3.10;2.70;;;8.00;99.90;;;;;;5054980;28;20212;-76
2022/04/13 04:02:06;;;;;;;3.07;2.60;;;7.90;99.90;;;;;;5038166;28;20173;-76
2022/04/13 04:04:32;;;;;;;4.37;3.07;;;7.90;99.90;;;;;;5072965;28;20190;-76
2022/04/13 04:06:58;;;;;;;3.60;2.93;;;7.90;99.90;;;;;;5055276;28;20194;-76
2022/04/13 04:09:23;;;;;;;5.50;3.40;;;8.00;99.90;;;;;;5072621;28;20183;-77
2022/04/13 04:11:49;;;;;;;3.70;3.30;;;7.90;99.90;;;;;;5072382;28;20174;-77
2022/04/13 04:14:15;;;;;;;3.80;3.23;;;7.90;99.90;;;;;;5054934;28;20201;-76
2022/04/13 04:16:40;;;;;;;3.77;3.27;;;7.90;99.90;;;;;;5021534;28;20177;-76
2022/04/13 04:19:06;;;;;;;3.43;3.10;;;7.80;99.90;;;;;;5021666;28;20276;-77
2022/04/13 04:21:32;;;;;;;4.10;3.10;;;7.70;99.90;;;;;;5054571;28;20176;-77
2022/04/13 04:23:57;;;;;;;4.07;3.23;;;7.70;99.90;;;;;;5054331;28;20225;-76
2022/04/13 04:29:45;;;;;;;4.23;2.50;;;8.10;99.90;;;;;;5072590;28;20159;-77
2022/04/13 04:32:11;;;;;;;6.17;2.83;;;8.70;99.90;;;;;;5038225;28;20176;-77
2022/04/13 04:34:37;;;;;;;3.00;2.63;;;9.00;99.90;;;;;;5038197;28;20693;-77
2022/04/13 04:37:03;;;;;;;3.77;2.80;;;9.30;99.90;;;;;;5037816;28;20194;-77
2022/04/13 04:39:28;;;;;;;5.57;3.17;;;9.60;99.90;;;;;;5038101;28;20173;-77
2022/04/13 04:41:54;;;;;;;5.73;3.00;;;9.40;99.90;;;;;;5038116;28;20270;-79
2022/04/13 04:44:20;;;;;;;4.20;3.20;;;8.90;99.90;;;;;;5034457;28;20208;-77
2022/04/13 04:46:45;;;;;;;4.37;3.03;;;8.60;99.90;;;;;;5018095;28;20214;-77
2022/04/13 04:49:11;;;;;;;3.97;2.83;;;8.40;99.90;;;;;;5001744;28;20177;-77
2022/04/13 04:51:37;;;;;;;3.37;2.87;;;8.20;99.90;;;;;;5001923;28;20219;-76
2022/04/13 04:54:03;;;;;;;3.77;3.17;;;8.00;99.90;;;;;;5033952;22;20226;-77
2022/04/13 04:56:29;;;;;;;4.50;3.30;;;7.90;99.90;;;;;;5016107;28;20664;-76
2022/04/13 04:58:56;;;;;;;3.40;3.10;;;7.80;99.90;;;;;;5018767;28;20179;-77
2022/04/13 05:01:22;;;;;;;4.17;3.00;;;7.80;99.90;;;;;;5018558;28;20177;-77
2022/04/13 05:03:49;;;;;;;3.37;3.00;;;7.70;99.90;;;;;;5035857;28;20217;-77
2022/04/13 05:06:23;;;;;;;2.80;2.40;;;7.80;99.90;;;;;;4986492;28;20221;-77
2022/04/13 05:08:52;;;;;;;5.07;3.00;;;7.70;99.90;;;;;;5002029;28;20174;-77
2022/04/13 05:11:18;;;;;;;3.13;2.80;;;7.60;99.90;;;;;;5018302;28;20652;-77
2022/04/13 05:13:47;;;;;;;3.03;2.33;;;7.60;99.90;;;;;;5018335;28;20195;-77
2022/04/13 05:16:14;;;;;;;3.07;2.37;;;7.60;99.90;;;;;;5018364;28;20202;-76
2022/04/13 05:18:42;;;;;;;3.23;2.20;;;7.60;99.90;;;;;;5036131;28;20205;-79
2022/04/13 05:21:08;;;;;;;2.97;2.30;;;7.60;99.90;;;;;;5018144;28;20170;-77
2022/04/13 05:23:35;;;;;;;2.57;2.20;;;7.70;99.90;;;;;;5001912;28;20210;-76
2022/04/13 05:26:01;;;;;;;2.57;2.17;;;7.80;99.90;;;;;;5018043;28;20608;-76
2022/04/13 05:28:29;;;;;;;2.73;2.53;;;7.90;99.90;;;;;;5002040;28;20635;-76
2022/04/13 05:30:55;;;;;;;3.40;3.10;;;8.00;99.90;;;;;;5001732;28;20177;-76
2022/04/13 05:33:20;;;;;;;4.83;3.47;;;8.00;99.90;;;;;;4985557;28;20289;-78
2022/04/13 05:35:46;;;;;;;4.33;2.97;;;7.90;99.90;;;;;;4986227;28;20270;-77
2022/04/13 05:38:12;;;;;;;4.07;3.40;;;7.80;99.90;;;;;;4985611;28;20206;-76
2022/04/13 05:40:37;;;;;;;4.13;3.13;;;7.80;99.90;;;;;;4985550;28;20178;-77
2022/04/13 05:43:03;;;;;;;3.47;3.03;;;7.80;99.90;;;;;;4997495;28;20181;-77
2022/04/13 05:45:28;;;;;;;3.23;2.80;;;8.00;99.90;;;;;;4982132;28;20210;-77
2022/04/13 05:47:54;;;;;;;2.90;2.70;;;8.00;99.90;;;;;;4965807;28;20274;-78
2022/04/13 05:50:20;;;;;;;4.50;2.97;;;8.10;99.90;;;;;;4965788;28;20188;-77
2022/04/13 05:52:45;;;;;;;4.13;2.63;;;8.10;99.90;;;;;;5024787;28;20540;-78
2022/04/13 05:55:12;;;;;;;3.53;2.70;;;8.20;99.90;;;;;;5001567;28;20223;-77
2022/04/13 05:58:01;;;;;;;5.17;3.60;;;8.20;99.90;;;;;;5017430;28;20622;-77
2022/04/13 06:00:27;;;;;;;4.67;2.83;;;8.20;99.90;;;;;;5035132;28;20190;-77
2022/04/13 06:02:52;;;;;;;12.20;8.37;;;8.20;99.90;;;;;;4984645;28;20175;-77
2022/04/13 06:05:20;;;;;;;6.57;4.80;;;8.20;99.90;;;;;;5001025;28;20214;-77
2022/04/13 06:07:47;;;;;;;7.47;4.80;;;8.10;99.90;;;;;;5000136;28;20189;-76
2022/04/13 06:10:12;;;;;;;8.20;4.17;;;8.20;99.90;;;;;;4981824;28;20177;-77
2022/04/13 06:12:38;;;;;;;4.73;3.73;;;8.30;99.90;;;;;;4981105;28;20179;-77
2022/04/13 06:15:04;;;;;;;6.63;3.90;;;8.30;99.90;;;;;;5015147;28;20188;-76
2022/04/13 06:17:30;;;;;;;5.17;4.03;;;8.40;99.90;;;;;;4997281;28;20178;-77
2022/04/13 06:19:56;;;;;;;6.50;4.00;;;8.40;99.90;;;;;;4981274;28;20206;-76
2022/04/13 06:22:21;;;;;;;5.00;4.00;;;8.40;99.90;;;;;;4997365;28;20201;-76
2022/04/13 06:24:51;;;;;;;5.37;3.83;;;8.40;99.90;;;;;;4981351;28;20195;-77
2022/04/13 06:27:19;;;;;;;6.40;3.50;;;8.50;99.90;;;;;;4997790;28;20266;-77
2022/04/13 06:29:46;;;;;;;5.27;3.63;;;8.60;99.90;;;;;;4981186;28;20274;-77
2022/04/13 06:32:13;;;;;;;5.83;3.30;;;8.60;99.90;;;;;;4997371;28;20176;-77
2022/04/13 06:34:38;;;;;;;6.03;3.90;;;8.70;99.90;;;;;;4997182;28;20204;-77
2022/04/13 06:37:04;;;;;;;4.03;3.47;;;8.80;99.90;;;;;;4997015;28;20192;-77
2022/04/13 06:39:30;;;;;;;4.97;3.30;;;8.80;99.90;;;;;;4997310;28;20188;-77
2022/04/13 06:41:56;;;;;;;4.17;3.30;;;8.90;99.90;;;;;;4980572;28;20187;-77
2022/04/13 06:44:21;;;;;;;4.67;3.50;;;9.00;99.90;;;;;;4980898;28;20208;-77
2022/04/13 06:46:47;;;;;;;3.80;3.40;;;9.00;99.90;;;;;;5000022;28;20634;-77
2022/04/13 06:49:13;;;;;;;4.03;3.50;;;9.20;99.90;;;;;;5000226;28;20171;-77
2022/04/13 06:51:38;;;;;;;4.63;3.20;;;9.30;99.90;;;;;;5015988;28;20183;-77
2022/04/13 06:54:04;;;;;;;7.27;4.10;;;9.30;99.90;;;;;;4996525;28;20252;-77
2022/04/13 06:56:32;;;;;;;4.77;4.00;;;9.50;99.90;;;;;;5007324;28;20552;-77
2022/04/13 06:58:58;;;;;;;5.10;3.83;;;9.70;99.90;;;;;;4997450;28;20185;-77
2022/04/13 07:01:24;;;;;;;4.20;3.40;;;9.80;99.90;;;;;;5000261;28;20243;-77
2022/04/13 07:03:49;;;;;;;5.37;3.33;;;9.90;99.90;;;;;;4997546;28;20288;-77
2022/04/13 07:06:15;;;;;;;4.83;3.63;;;10.00;99.90;;;;;;4997611;28;20212;-77
2022/04/13 07:08:41;;;;;;;3.17;2.87;;;10.10;99.90;;;;;;4999984;28;20186;-77
2022/04/13 07:11:06;;;;;;;5.57;2.60;;;10.20;99.90;;;;;;5000021;28;20182;-77
2022/04/13 07:13:32;;;;;;;9.87;3.20;;;10.30;99.90;;;;;;4980206;28;20642;-77
2022/04/13 07:15:58;;;;;;;16.13;3.47;;;10.40;99.90;;;;;;4986111;28;20182;-77
2022/04/13 07:18:25;;;;;;;7.87;3.00;;;10.50;99.90;;;;;;4980082;28;20532;-77
2022/04/13 07:20:50;;;;;;;5.23;3.13;;;10.60;99.90;;;;;;5014590;28;20186;-77
2022/04/13 07:23:16;;;;;;;4.63;2.80;;;10.70;99.90;;;;;;5015265;28;20194;-77
2022/04/13 07:25:42;;;;;;;5.27;2.80;;;10.90;99.90;;;;;;5014414;28;20206;-77
2022/04/13 07:28:08;;;;;;;4.90;3.17;;;11.00;99.90;;;;;;5015759;28;20616;-77
2022/04/13 07:30:33;;;;;;;3.60;2.90;;;11.10;99.90;;;;;;4982977;28;20182;-78
2022/04/13 07:33:01;;;;;;;4.47;2.80;;;11.30;99.90;;;;;;4999089;28;20269;-77
2022/04/13 07:35:29;;;;;;;3.83;2.80;;;11.50;99.90;;;;;;5015775;28;20179;-76
2022/04/13 07:37:55;;;;;;;3.27;2.27;;;11.70;99.90;;;;;;4982826;28;20668;-76
2022/04/13 07:40:20;;;;;;;3.13;2.50;;;11.90;99.90;;;;;;5015131;28;20217;-76
2022/04/13 07:42:46;;;;;;;3.10;2.40;;;12.10;99.90;;;;;;4995392;28;20207;-76
2022/04/13 07:45:12;;;;;;;2.33;2.10;;;12.30;99.90;;;;;;4979829;28;20234;-77
2022/04/13 07:47:38;;;;;;;3.13;2.47;;;12.60;99.90;;;;;;4979971;28;20180;-76
2022/04/13 07:50:05;;;;;;;2.63;2.27;;;12.80;99.90;;;;;;5003702;28;20216;-76
2022/04/13 07:52:37;;;;;;;4.33;2.10;;;13.10;99.90;;;;;;5014967;28;20166;-76
2022/04/13 07:55:03;;;;;;;3.47;2.03;;;13.30;99.90;;;;;;5015314;28;20210;-76
2022/04/13 07:57:29;;;;;;;3.13;2.37;;;13.40;99.90;;;;;;4995502;28;20187;-76
2022/04/13 07:59:55;;;;;;;6.77;2.23;;;13.60;99.90;;;;;;4979270;28;20272;-76
2022/04/13 08:02:21;;;;;;;3.40;2.37;;;13.70;99.90;;;;;;4995491;28;20172;-77
2022/04/13 08:04:47;;;;;;;4.13;2.50;;;13.80;99.90;;;;;;4995417;28;20736;-76
2022/04/13 08:07:13;;;;;;;4.73;2.23;;;13.90;99.90;;;;;;5024201;28;20210;-76
2022/04/13 08:09:39;;;;;;;3.07;2.20;;;14.00;99.90;;;;;;4998932;28;20652;-76
2022/04/13 08:12:05;;;;;;;9.47;2.37;;;14.10;99.90;;;;;;5014859;28;20657;-77
2022/04/13 08:14:31;;;;;;;5.23;2.50;;;14.20;99.90;;;;;;4998628;28;20194;-76
2022/04/13 08:16:56;;;;;;;5.30;2.77;;;14.30;99.90;;;;;;4998705;28;20183;-76
2022/04/13 08:19:23;;;;;;;5.10;3.30;;;14.40;99.90;;;;;;4998883;28;20178;-76
2022/04/13 08:21:48;;;;;;;7.77;4.27;;;14.50;99.90;;;;;;5015112;28;20202;-77
2022/04/13 08:24:17;;;;;;;4.27;3.20;;;14.70;99.90;;;;;;5015100;28;20224;-77
2022/04/13 08:26:44;;;;;;;5.10;2.57;;;14.90;99.90;;;;;;4998952;28;20201;-76
2022/04/13 08:29:10;;;;;;;4.90;3.30;;;15.00;99.90;;;;;;4982572;28;20228;-76
2022/04/13 08:31:35;;;;;;;4.43;3.70;;;15.10;99.90;;;;;;5014182;28;20234;-76
2022/04/13 08:34:01;;;;;;;5.47;2.70;;;15.30;99.90;;;;;;4998418;28;20206;-76
2022/04/13 08:36:27;;;;;;;3.77;2.60;;;15.40;99.90;;;;;;5014814;28;20175;-76
2022/04/13 08:38:52;;;;;;;3.57;2.70;;;15.50;99.90;;;;;;4998511;28;20593;-76
2022/04/13 08:41:40;;;;;;;6.13;2.80;;;15.50;99.90;;;;;;4982517;28;20206;-76
2022/04/13 08:44:22;;;;;;;4.13;2.73;;;15.60;99.90;;;;;;5014401;28;20191;-76
2022/04/13 08:46:49;;;;;;;6.27;3.00;;;15.80;99.90;;;;;;5015831;28;20730;-76
2022/04/13 08:49:15;;;;;;;3.00;2.67;;;16.00;99.90;;;;;;5014873;28;20167;-77
2022/04/13 08:51:41;;;;;;;5.00;3.13;;;16.10;99.90;;;;;;5014470;28;20174;-76
2022/04/13 08:54:19;;;;;;;3.40;3.00;;;16.20;99.90;;;;;;4981808;28;20206;-76
2022/04/13 08:56:48;;;;;;;3.90;3.07;;;16.20;99.90;;;;;;5014911;28;20229;-76
2022/04/13 08:59:25;;;;;;;4.23;2.77;;;16.30;99.90;;;;;;5014987;28;20178;-76
2022/04/13 09:02:17;;;;;;;3.47;2.70;;;16.40;99.90;;;;;;5032081;28;20180;-76
2022/04/13 09:04:45;;;;;;;4.90;2.80;;;16.40;99.90;;;;;;5014804;28;20620;-76
2022/04/13 09:07:13;;;;;;;3.90;2.80;;;16.50;99.90;;;;;;5014384;28;20277;-76
2022/04/13 09:09:43;;;;;;;5.10;3.00;;;16.70;99.90;;;;;;4982054;28;20175;-76
2022/04/13 09:12:12;;;;;;;3.10;2.43;;;16.70;99.90;;;;;;5032041;28;20190;-76
2022/04/13 09:14:38;;;;;;;4.23;2.80;;;16.70;99.90;;;;;;5032106;28;20194;-77
2022/04/13 09:17:05;;;;;;;4.43;2.80;;;16.80;99.90;;;;;;4998267;28;20179;-77
2022/04/13 09:19:32;;;;;;;4.37;3.17;;;17.00;99.90;;;;;;5014439;28;20254;-77
2022/04/13 09:21:59;;;;;;;4.60;2.70;;;17.10;99.90;;;;;;4998103;28;20269;-78
2022/04/13 09:24:27;;;;;;;3.40;2.60;;;17.20;99.90;;;;;;4998055;28;20197;-77
2022/04/13 09:26:53;;;;;;;3.47;2.73;;;17.40;99.90;;;;;;4997895;28;20202;-77
2022/04/13 09:29:19;;;;;;;3.60;2.60;;;17.40;99.90;;;;;;5014395;28;20174;-76
2022/04/13 09:31:45;;;;;;;4.77;3.30;;;17.50;99.90;;;;;;5014401;28;20179;-77
2022/04/13 09:34:11;;;;;;;7.07;3.10;;;17.60;99.90;;;;;;4997808;28;20665;-77
2022/04/13 09:36:37;;;;;;;4.07;3.27;;;17.70;99.90;;;;;;5014563;28;20181;-77
2022/04/13 09:39:03;;;;;;;4.33;3.13;;;17.90;99.90;;;;;;5014327;28;20174;-76
2022/04/13 09:41:36;;;;;;;4.40;3.20;;;18.00;99.90;;;;;;5014607;28;20200;-76
2022/04/13 09:44:11;;;;;;;4.80;3.20;;;18.20;99.90;;;;;;5000138;28;20194;-78
2022/04/13 09:46:37;;;;;;;6.63;3.33;;;18.20;99.90;;;;;;5009952;28;20255;-77
2022/04/13 09:49:10;;;;;;;5.20;3.07;;;18.20;99.90;;;;;;5017984;28;20178;-77
2022/04/13 09:51:37;;;;;;;28.30;15.33;;;18.40;99.90;;;;;;5017908;28;20170;-77
2022/04/13 09:54:13;;;;;;;180.30;98.80;;;18.50;99.90;;;;;;5035099;28;20225;-77
2022/04/13 09:56:44;;;;;;;11.03;7.07;;;18.70;99.90;;;;;;5017553;28;20232;-77
2022/04/13 09:59:10;;;;;;;7.97;4.70;;;18.80;99.90;;;;;;5017846;28;20180;-77
2022/04/13 10:01:37;;;;;;;4.50;3.13;;;18.90;99.90;;;;;;5001051;28;20189;-77
2022/04/13 10:04:03;;;;;;;66.67;27.93;;;19.00;99.90;;;;;;5017345;28;20194;-76
2022/04/13 10:06:30;;;;;;;6.07;4.17;;;19.20;99.90;;;;;;5017571;28;20205;-76
2022/04/13 10:09:08;;;;;;;5.67;3.23;;;19.50;99.90;;;;;;5017565;28;20547;-76
2022/04/13 10:11:34;;;;;;;6.00;3.30;;;19.60;99.90;;;;;;5000959;28;20644;-76
2022/04/13 10:14:09;;;;;;;10.07;5.97;;;19.50;99.40;;;;;;5000527;28;20205;-76
2022/04/13 10:16:35;;;;;;;6.90;4.10;;;19.90;99.90;;;;;;5017331;28;20173;-76
2022/04/13 10:19:03;;;;;;;7.60;3.92;;;20.20;99.90;;;;;;5017165;28;20641;-77
2022/04/13 10:21:36;;;;;;;5.83;3.57;;;20.10;99.90;;;;;;5016988;28;20228;-76
2022/04/13 10:24:05;;;;;;;6.50;3.77;;;20.10;99.90;;;;;;5016704;28;20194;-77
2022/04/13 10:26:31;;;;;;;11.93;7.55;;;20.00;98.40;;;;;;5016983;28;20205;-76
2022/04/13 10:28:56;;;;;;;7.50;4.00;;;19.90;99.70;;;;;;5017135;28;20175;-77
2022/04/13 10:31:22;;;;;;;5.50;3.70;;;20.10;98.90;;;;;;5016991;28;20170;-78
2022/04/13 10:33:49;;;;;;;6.57;3.65;;;20.20;98.60;;;;;;4984183;28;20192;-76
2022/04/13 10:36:16;;;;;;;4.97;3.40;;;20.30;97.30;;;;;;5000546;28;20179;-76
2022/04/13 10:38:43;;;;;;;3.78;3.10;;;20.40;97.60;;;;;;5000384;28;20182;-76
2022/04/13 10:41:15;;;;;;;7.10;3.50;;;20.50;98.10;;;;;;5017042;28;20175;-75
2022/04/13 10:43:54;;;;;;;7.70;4.50;;;20.70;97.90;;;;;;5000037;28;20198;-75
2022/04/13 10:46:21;;;;;;;5.97;3.90;;;20.80;98.70;;;;;;5016594;28;20213;-76
2022/04/13 10:48:54;;;;;;;5.53;3.72;;;21.00;98.30;;;;;;5016710;28;20171;-76
2022/04/13 10:51:28;;;;;;;13.15;5.30;;;21.20;96.90;;;;;;5016655;28;20309;-76
2022/04/13 10:54:02;;;;;;;5.70;3.60;;;21.40;99.50;;;;;;5045023;22;20217;-76
2022/04/13 10:56:32;;;;;;;6.35;3.78;;;21.50;96.30;;;;;;5019948;28;20189;-76
2022/04/13 10:59:09;;;;;;;6.25;4.03;;;21.60;95.10;;;;;;5036225;28;20765;-77
2022/04/13 11:01:45;;;;;;;6.05;3.50;;;21.70;94.90;;;;;;5051840;28;20601;-76
2022/04/13 11:04:12;;;;;;;5.53;3.53;;;21.80;93.70;;;;;;5016207;28;20239;-77
2022/04/13 11:06:40;;;;;;;5.90;3.80;;;21.90;95.50;;;;;;5001665;28;20203;-76
2022/04/13 11:09:29;;;;;;;7.32;3.78;;;21.90;92.70;;;;;;4999826;28;20182;-76
2022/04/13 11:11:58;;;;;;;7.63;3.67;;;21.60;92.50;;;;;;4999561;28;20178;-77
2022/04/13 11:14:25;;;;;;;9.52;3.60;;;21.80;94.00;;;;;;5015992;28;20212;-76
2022/04/13 11:17:05;;;;;;;6.28;3.80;;;22.00;93.00;;;;;;5016585;28;20224;-77
2022/04/13 11:19:31;;;;;;;5.07;3.28;;;22.00;91.60;;;;;;5015967;28;20182;-77
2022/04/13 11:21:57;;;;;;;4.85;3.35;;;22.10;92.40;;;;;;5015786;28;20183;-77
2022/04/13 11:24:34;;;;;;;6.65;3.80;;;22.20;92.40;;;;;;5030691;28;20205;-76
2022/04/13 11:27:00;;;;;;;4.82;3.53;;;22.40;92.40;;;;;;5019141;28;20205;-77
2022/04/13 11:29:36;;;;;;;4.68;3.47;;;22.50;91.80;;;;;;5035542;28;20173;-77
2022/04/13 11:32:02;;;;;;;5.07;3.47;;;22.60;92.40;;;;;;5035325;28;20169;-77
2022/04/13 11:34:49;;;;;;;4.32;3.00;;;22.80;91.40;;;;;;5035405;28;20200;-77
2022/04/13 11:37:20;;;;;;;5.10;3.22;;;22.80;90.90;;;;;;5035398;28;20166;-77
2022/04/13 11:39:54;;;;;;;4.72;3.10;;;22.90;90.80;;;;;;5019979;28;20177;-77
2022/04/13 11:42:26;;;;;;;4.75;3.15;;;23.00;89.90;;;;;;5052978;28;20182;-77
2022/04/13 11:45:02;;;;;;;5.15;3.20;;;22.80;90.50;;;;;;5053225;28;20190;-77
2022/04/13 11:47:40;;;;;;;3.72;3.00;;;22.80;90.80;;;;;;5035502;28;20247;-77
2022/04/13 11:50:15;;;;;;;4.35;3.08;;;23.00;90.60;;;;;;5019682;28;20174;-78
2022/04/13 11:53:06;;;;;;;5.20;2.92;;;23.00;90.30;;;;;;5034819;28;20264;-77
2022/04/13 11:55:40;;;;;;;4.00;3.45;;;23.20;89.40;;;;;;5034986;28;20259;-77
2022/04/13 11:58:09;;;;;;;4.90;3.15;;;23.20;89.00;;;;;;5035083;28;20207;-77
2022/04/13 12:00:52;;;;;;;4.45;3.10;;;23.40;88.80;;;;;;5051806;28;20235;-77
2022/04/13 12:03:30;;;;;;;5.05;3.25;;;23.40;86.60;;;;;;5034631;28;20182;-77
2022/04/13 12:06:00;;;;;;;5.57;3.22;;;23.40;88.70;;;;;;5018761;28;20225;-77
2022/04/13 12:08:30;;;;;;;5.47;3.20;;;23.70;86.70;;;;;;5034862;28;20696;-77
2022/04/13 12:11:03;;;;;;;6.30;2.80;;;23.70;84.10;;;;;;5002972;28;20177;-77
2022/04/13 12:13:33;;;;;;;5.05;3.20;;;23.80;87.00;;;;;;5034743;28;20197;-77
2022/04/13 12:16:00;;;;;;;3.92;3.05;;;23.90;84.20;;;;;;5003252;28;20166;-77
2022/04/13 12:18:27;;;;;;;4.65;2.92;;;23.90;83.70;;;;;;5018559;28;20181;-77
2022/04/13 12:21:05;;;;;;;6.40;3.03;;;24.10;83.60;;;;;;5052567;28;20162;-76
2022/04/13 12:23:38;;;;;;;5.65;3.58;;;24.20;82.80;;;;;;5052543;28;20185;-76
2022/04/13 12:26:05;;;;;;;5.15;2.90;;;24.40;80.30;;;;;;5034782;28;20619;-77
2022/04/13 12:28:31;;;;;;;4.20;2.90;;;24.40;78.20;;;;;;5035082;28;20209;-77
2022/04/13 12:31:06;;;;;;;4.22;2.80;;;24.40;79.00;;;;;;5034631;28;20166;-77
2022/04/13 12:33:32;;;;;;;4.57;3.00;;;24.50;78.00;;;;;;5035626;28;20154;-77
2022/04/13 12:36:00;;;;;;;4.13;2.55;;;24.80;79.30;;;;;;5002106;28;20224;-77
2022/04/13 12:38:36;;;;;;;5.07;2.80;;;24.80;76.80;;;;;;5018072;28;20272;-77
2022/04/13 12:41:10;;;;;;;5.05;3.08;;;24.80;77.40;;;;;;5034562;28;20173;-76
2022/04/13 12:43:38;;;;;;;4.22;2.40;;;25.10;77.70;;;;;;5018953;28;20169;-76
2022/04/13 12:46:12;;;;;;;3.40;2.60;;;25.30;74.80;;;;;;5034275;28;20206;-76
2022/04/13 12:48:39;;;;;;;3.72;2.60;;;25.40;78.50;;;;;;5026369;28;20658;-77
2022/04/13 12:51:06;;;;;;;3.95;2.53;;;25.10;73.40;;;;;;5017589;28;20178;-77
2022/04/13 12:53:49;;;;;;;3.92;2.55;;;25.20;72.70;;;;;;5033613;28;20174;-77
2022/04/13 12:56:17;;;;;;;5.20;3.08;;;25.40;73.70;;;;;;5033746;28;20184;-76
2022/04/13 12:58:43;;;;;;;6.40;2.70;;;25.50;71.60;;;;;;5051769;28;20177;-76
2022/04/13 13:01:11;;;;;;;5.53;2.80;;;25.40;72.90;;;;;;5017447;28;20192;-77
2022/04/13 13:03:40;;;;;;;4.50;2.78;;;25.50;75.70;;;;;;5033780;28;20178;-77